Time;durP1;ratioP1;P1;durP2;ratioP2;P2;SDS_P1;SDS_P2;PMS_P1;PMS_P2;Temp;Humidity;BMP_temperature;BMP_pressure;BME280_temperature;BME280_humidity;BME280_pressure;Samples;Min_cycle;Max_cycle;Signal;HPM_P1;HPM_P2
2022/06/25 00:01:14;;;;;;;;;;;18.40;99.90;;;;;;5033088;28;19928;-72
2022/06/25 00:03:41;;;;;;;;;;;18.40;99.90;;;;;;5032848;28;19979;-73
2022/06/25 00:06:07;;;;;;;;;;;18.30;99.90;;;;;;5032953;28;19933;-73
2022/06/25 00:08:35;;;;;;;;;;;18.30;99.90;;;;;;5033059;28;19944;-72
2022/06/25 00:11:02;;;;;;;;;;;18.50;99.90;;;;;;5032798;28;19925;-71
2022/06/25 00:13:29;;;;;;;;;;;18.40;99.90;;;;;;5032653;28;19979;-72
2022/06/25 00:15:56;;;;;;;;;;;18.40;99.90;;;;;;5032066;28;19932;-72
2022/06/25 00:18:22;;;;;;;;;;;18.40;99.90;;;;;;5030726;28;19970;-71
2022/06/25 00:20:49;;;;;;;;;;;18.50;99.90;;;;;;5032523;28;20443;-71
2022/06/25 00:23:16;;;;;;;;;;;18.50;99.90;;;;;;5032238;28;19971;-71
2022/06/25 00:25:43;;;;;;;;;;;18.50;99.90;;;;;;5033071;28;19987;-73
2022/06/25 00:28:10;;;;;;;;;;;18.50;99.90;;;;;;5032931;28;19979;-72
2022/06/25 00:30:38;;;;;;;;;;;18.30;99.90;;;;;;5032822;28;19931;-73
2022/06/25 00:33:05;;;;;;;;;;;18.30;99.90;;;;;;5032565;28;20004;-73
2022/06/25 00:35:32;;;;;;;;;;;18.40;99.90;;;;;;5032102;28;19976;-71
2022/06/25 00:37:59;;;;;;;;;;;18.40;99.90;;;;;;5032821;28;19929;-73
2022/06/25 00:40:25;;;;;;;;;;;18.40;99.90;;;;;;5032875;28;19926;-73
2022/06/25 00:42:52;;;;;;;;;;;18.40;99.90;;;;;;5032463;28;20385;-73
2022/06/25 00:45:19;;;;;;;;;;;18.40;99.90;;;;;;5032188;28;19925;-74
2022/06/25 00:47:47;;;;;;;;;;;18.30;99.90;;;;;;5032404;28;19925;-72
2022/06/25 00:50:14;;;;;;;;;;;18.20;99.90;;;;;;5032528;28;19929;-72
2022/06/25 00:52:42;;;;;;;;;;;18.20;99.90;;;;;;5031750;28;19979;-71
2022/06/25 00:55:10;;;;;;;;;;;18.20;99.90;;;;;;5031353;28;19925;-71
2022/06/25 00:57:39;;;;;;;;;;;18.20;99.90;;;;;;5031468;28;19979;-72
2022/06/25 01:00:07;;;;;;;;;;;18.30;99.90;;;;;;5031508;28;19925;-71
2022/06/25 01:02:34;;;;;;;;;;;18.20;99.90;;;;;;5031476;28;19931;-72
2022/06/25 01:05:05;;;;;;;;;;;18.10;99.90;;;;;;5031152;28;20138;-72
2022/06/25 01:07:32;;;;;;;;;;;18.10;99.90;;;;;;5031491;28;19982;-71
2022/06/25 01:09:59;;;;;;;;;;;18.10;99.90;;;;;;5031438;28;19925;-71
2022/06/25 01:12:25;;;;;;;;;;;18.10;99.90;;;;;;5031167;28;19925;-73
2022/06/25 01:15:00;;;;;;;;;;;18.10;99.90;;;;;;5030900;28;20381;-72
2022/06/25 01:17:28;;;;;;;;;;;18.00;99.90;;;;;;5031262;28;19976;-72
2022/06/25 01:19:55;;;;;;;;;;;18.00;99.90;;;;;;5031563;28;20337;-72
2022/06/25 01:22:24;;;;;;;;;;;18.00;99.90;;;;;;5031064;28;20067;-73
2022/06/25 01:24:50;;;;;;;;;;;17.80;99.90;;;;;;5031216;28;19926;-72
2022/06/25 01:27:17;;;;;;;;;;;17.90;99.90;;;;;;5029872;28;19925;-72
2022/06/25 01:29:45;;;;;;;;;;;18.00;99.90;;;;;;5030969;28;19972;-71
2022/06/25 01:32:12;;;;;;;;;;;17.90;99.90;;;;;;5031563;28;19988;-71
2022/06/25 01:34:38;;;;;;;;;;;17.80;99.90;;;;;;5031332;28;19972;-71
2022/06/25 01:37:05;;;;;;;;;;;17.70;99.90;;;;;;5030889;28;19958;-71
2022/06/25 01:39:34;;;;;;;;;;;17.70;99.90;;;;;;5031155;28;19929;-70
2022/06/25 01:42:01;;;;;;;;;;;17.60;99.90;;;;;;5030857;28;19929;-70
2022/06/25 01:44:29;;;;;;;;;;;17.70;99.90;;;;;;5031169;28;19976;-70
2022/06/25 01:46:55;;;;;;;;;;;17.70;99.90;;;;;;5030720;28;19925;-71
2022/06/25 01:49:22;;;;;;;;;;;17.70;99.90;;;;;;5031113;28;20019;-71
2022/06/25 01:51:49;;;;;;;;;;;17.60;99.90;;;;;;4965435;28;1869883;-70
2022/06/25 01:54:16;;;;;;;;;;;17.60;99.90;;;;;;5032086;28;19929;-71
2022/06/25 01:56:44;;;;;;;;;;;17.60;99.90;;;;;;5031639;28;19933;-71
2022/06/25 01:59:11;;;;;;;;;;;17.50;99.90;;;;;;5032107;28;19949;-70
2022/06/25 02:01:38;;;;;;;;;;;17.60;99.90;;;;;;5031682;28;19967;-71
2022/06/25 02:04:05;;;;;;;;;;;17.60;99.90;;;;;;5031820;28;19925;-71
2022/06/25 02:06:31;;;;;;;;;;;17.50;99.90;;;;;;5031855;28;19971;-73
2022/06/25 02:08:58;;;;;;;;;;;17.40;99.90;;;;;;5032135;28;19932;-72
2022/06/25 02:11:25;;;;;;;;;;;17.40;99.90;;;;;;5031812;28;20300;-70
2022/06/25 02:13:53;;;;;;;;;;;17.40;99.90;;;;;;5031678;28;19929;-71
2022/06/25 02:16:20;;;;;;;;;;;17.40;99.90;;;;;;5031724;28;19925;-71
2022/06/25 02:18:47;;;;;;;;;;;17.40;99.90;;;;;;5031770;28;20393;-70
2022/06/25 02:21:14;;;;;;;;;;;17.40;99.90;;;;;;5031801;28;19932;-70
2022/06/25 02:23:41;;;;;;;;;;;17.40;99.90;;;;;;5031808;28;20477;-70
2022/06/25 02:26:08;;;;;;;;;;;17.40;99.90;;;;;;5031293;28;19936;-71
2022/06/25 02:28:35;;;;;;;;;;;17.40;99.90;;;;;;5031598;28;19926;-70
2022/06/25 02:31:03;;;;;;;;;;;17.20;99.90;;;;;;5031712;28;19926;-71
2022/06/25 02:33:30;;;;;;;;;;;17.30;99.90;;;;;;5031402;28;20393;-71
2022/06/25 02:35:56;;;;;;;;;;;17.40;99.90;;;;;;5031546;28;19940;-70
2022/06/25 02:38:23;;;;;;;;;;;17.30;99.90;;;;;;5034031;28;19929;-71
2022/06/25 02:40:50;;;;;;;;;;;17.30;99.90;;;;;;5035295;28;20023;-72
2022/06/25 02:43:17;;;;;;;;;;;17.40;99.90;;;;;;5035159;28;19925;-72
2022/06/25 02:45:44;;;;;;;;;;;17.40;99.90;;;;;;5034588;28;19929;-72
2022/06/25 02:48:12;;;;;;;;;;;17.40;99.90;;;;;;5034866;28;19925;-71
2022/06/25 02:50:39;;;;;;;;;;;17.40;99.90;;;;;;5034837;28;19987;-71
2022/06/25 02:53:05;;;;;;;;;;;17.40;99.90;;;;;;5034299;28;19929;-71
2022/06/25 03:01:01;;;;;;;;;;;17.50;99.90;;;;;;5034943;28;20030;-69
2022/06/25 03:03:29;;;;;;;;;;;17.40;99.90;;;;;;5034777;28;19979;-69
2022/06/25 03:05:56;;;;;;;;;;;17.30;99.90;;;;;;5034876;28;19932;-70
2022/06/25 03:08:23;;;;;;;;;;;17.40;99.90;;;;;;5035830;28;19925;-69
2022/06/25 03:10:50;;;;;;;;;;;17.40;99.90;;;;;;5034748;28;19979;-69
2022/06/25 03:13:16;;;;;;;;;;;17.30;99.90;;;;;;5034843;28;19925;-69
2022/06/25 03:15:43;;;;;;;;;;;17.40;99.90;;;;;;5033883;28;19929;-70
2022/06/25 03:18:10;;;;;;;;;;;17.40;99.90;;;;;;5034368;28;20456;-71
2022/06/25 03:20:38;;;;;;;;;;;17.40;99.90;;;;;;5034250;28;20007;-69
2022/06/25 03:23:05;;;;;;;;;;;17.40;99.90;;;;;;5034198;28;20374;-70
2022/06/25 03:25:32;;;;;;;;;;;17.40;99.90;;;;;;5033853;28;19925;-71
2022/06/25 03:27:59;;;;;;;;;;;17.40;99.90;;;;;;5034313;28;19925;-70
2022/06/25 03:30:25;;;;;;;;;;;17.50;99.90;;;;;;5033847;28;19971;-71
2022/06/25 03:32:52;;;;;;;;;;;17.60;99.90;;;;;;5033733;28;19925;-73
2022/06/25 03:35:19;;;;;;;;;;;17.60;99.90;;;;;;5033522;28;20031;-72
2022/06/25 03:37:47;;;;;;;;;;;17.60;99.90;;;;;;5033889;28;19925;-72
2022/06/25 03:40:16;;;;;;;;;;;17.60;99.90;;;;;;5034168;28;19936;-71
2022/06/25 03:42:43;;;;;;;;;;;17.60;99.90;;;;;;5033780;28;19925;-71
2022/06/25 03:45:10;;;;;;;;;;;17.60;99.90;;;;;;5033314;28;19980;-71
2022/06/25 03:47:37;;;;;;;;;;;17.60;99.90;;;;;;5033904;28;20385;-74
2022/06/25 03:50:04;;;;;;;;;;;17.60;99.90;;;;;;5033040;28;19929;-72
2022/06/25 03:52:32;;;;;;;;;;;17.60;99.90;;;;;;5033246;28;19925;-74
2022/06/25 03:55:00;;;;;;;;;;;17.70;99.90;;;;;;5033216;28;20286;-73
2022/06/25 03:57:27;;;;;;;;;;;17.70;99.90;;;;;;5033375;28;19979;-72
2022/06/25 03:59:53;;;;;;;;;;;17.60;99.90;;;;;;5033581;28;20008;-72
2022/06/25 04:02:20;;;;;;;;;;;17.70;99.90;;;;;;5033389;28;19925;-71
2022/06/25 04:04:47;;;;;;;;;;;17.60;99.90;;;;;;5033110;28;19925;-72
2022/06/25 04:07:14;;;;;;;;;;;17.60;99.90;;;;;;5033628;28;20298;-70
2022/06/25 04:09:41;;;;;;;;;;;17.70;99.90;;;;;;5033426;28;20393;-70
2022/06/25 04:12:09;;;;;;;;;;;17.60;99.90;;;;;;5033295;28;20385;-70
2022/06/25 04:14:36;;;;;;;;;;;17.60;99.90;;;;;;5033609;28;19929;-70
2022/06/25 04:17:02;;;;;;;;;;;17.60;99.90;;;;;;5033313;28;19987;-70
2022/06/25 04:19:29;;;;;;;;;;;17.60;99.90;;;;;;5033172;28;20360;-70
2022/06/25 04:21:56;;;;;;;;;;;17.60;99.90;;;;;;5032853;28;19925;-72
2022/06/25 04:24:23;;;;;;;;;;;17.70;99.90;;;;;;5032916;28;19932;-72
2022/06/25 04:26:50;;;;;;;;;;;17.70;99.90;;;;;;5032691;28;19929;-72
2022/06/25 04:29:17;;;;;;;;;;;17.80;99.90;;;;;;5032952;28;19971;-73
2022/06/25 04:31:44;;;;;;;;;;;17.80;99.90;;;;;;5032572;28;19925;-73
2022/06/25 04:34:10;;;;;;;;;;;17.80;99.90;;;;;;5032794;28;19971;-72
2022/06/25 04:36:37;;;;;;;;;;;17.70;99.90;;;;;;5032465;28;20432;-71
2022/06/25 04:39:04;;;;;;;;;;;17.70;99.90;;;;;;5032658;28;20024;-70
2022/06/25 04:41:31;;;;;;;;;;;17.80;99.90;;;;;;5032616;28;20554;-72
2022/06/25 04:44:01;;;;;;;;;;;17.80;99.90;;;;;;5032587;28;19925;-72
2022/06/25 04:46:30;;;;;;;;;;;17.90;99.90;;;;;;5032235;28;19964;-72
2022/06/25 04:48:56;;;;;;;;;;;17.90;99.90;;;;;;5032422;28;20297;-73
2022/06/25 04:51:23;;;;;;;;;;;17.90;99.90;;;;;;5032444;28;19925;-71
2022/06/25 04:53:56;;;;;;;;;;;17.90;99.90;;;;;;5032120;28;20439;-73
2022/06/25 04:56:23;;;;;;;;;;;17.80;99.90;;;;;;5032250;28;19925;-72
2022/06/25 04:58:50;;;;;;;;;;;17.90;99.90;;;;;;5032392;28;19929;-73
2022/06/25 05:01:17;;;;;;;;;;;17.80;99.90;;;;;;5032123;28;19979;-72
2022/06/25 05:03:45;;;;;;;;;;;17.80;99.90;;;;;;5032070;28;19995;-72
2022/06/25 05:06:12;;;;;;;;;;;17.90;99.90;;;;;;5031745;28;19929;-71
2022/06/25 05:08:39;;;;;;;;;;;17.80;99.90;;;;;;5032322;28;20251;-70
2022/06/25 05:11:06;;;;;;;;;;;17.90;99.90;;;;;;5032323;28;19932;-72
2022/06/25 05:13:33;;;;;;;;;;;18.20;99.90;;;;;;5031897;28;19925;-71
2022/06/25 05:15:59;;;;;;;;;;;18.10;99.90;;;;;;5031909;28;19929;-71
2022/06/25 05:18:26;;;;;;;;;;;18.10;99.90;;;;;;5032275;28;19925;-71
2022/06/25 05:20:54;;;;;;;;;;;18.30;99.90;;;;;;5031694;28;19979;-72
2022/06/25 05:23:21;;;;;;;;;;;18.50;99.90;;;;;;5031856;28;19936;-70
2022/06/25 05:25:48;;;;;;;;;;;18.40;99.90;;;;;;5031797;28;19955;-73
2022/06/25 05:28:16;;;;;;;;;;;18.40;99.90;;;;;;5031925;28;19929;-70
2022/06/25 05:30:43;;;;;;;;;;;18.60;99.90;;;;;;5032134;28;20020;-71
2022/06/25 05:33:10;;;;;;;;;;;18.50;99.90;;;;;;5031781;28;19925;-71
2022/06/25 05:35:37;;;;;;;;;;;18.60;99.90;;;;;;5031700;28;20361;-72
2022/06/25 05:38:05;;;;;;;;;;;18.40;99.90;;;;;;5031726;28;20297;-74
2022/06/25 05:40:32;;;;;;;;;;;18.60;99.90;;;;;;5031791;28;19979;-74
2022/06/25 05:42:59;;;;;;;;;;;18.70;99.90;;;;;;5031711;28;19932;-73
2022/06/25 05:45:25;;;;;;;;;;;18.50;99.90;;;;;;5031566;28;19982;-70
2022/06/25 05:47:52;;;;;;;;;;;18.60;99.90;;;;;;5031568;28;19925;-71
2022/06/25 05:50:19;;;;;;;;;;;18.40;99.90;;;;;;5031740;28;19929;-71
2022/06/25 05:52:46;;;;;;;;;;;18.40;99.90;;;;;;5031632;28;20293;-71
2022/06/25 05:55:14;;;;;;;;;;;18.50;99.90;;;;;;5031686;28;19960;-72
2022/06/25 05:57:41;;;;;;;;;;;18.60;99.90;;;;;;5031639;28;19925;-71
2022/06/25 06:00:09;;;;;;;;;;;18.50;99.90;;;;;;5031655;28;19925;-73
2022/06/25 06:02:36;;;;;;;;;;;18.60;99.90;;;;;;5031514;28;19935;-70
2022/06/25 06:05:03;;;;;;;;;;;18.70;99.90;;;;;;5031343;28;19925;-71
2022/06/25 06:07:29;;;;;;;;;;;18.70;99.90;;;;;;5032038;28;20370;-73
2022/06/25 06:09:56;;;;;;;;;;;18.90;99.90;;;;;;5031724;28;19929;-72
2022/06/25 06:12:24;;;;;;;;;;;19.00;99.90;;;;;;5032271;28;19926;-72
2022/06/25 06:14:51;;;;;;;;;;;19.00;99.90;;;;;;5035275;28;19980;-71
2022/06/25 06:17:18;;;;;;;;;;;19.20;99.90;;;;;;5035317;28;19929;-71
2022/06/25 06:19:45;;;;;;;;;;;19.10;99.90;;;;;;5035536;28;20455;-72
2022/06/25 06:22:11;;;;;;;;;;;19.40;99.90;;;;;;5035452;28;19979;-71
2022/06/25 06:24:39;;;;;;;;;;;19.40;99.90;;;;;;5035253;28;19925;-71
2022/06/25 06:27:07;;;;;;;;;;;19.60;99.90;;;;;;5035246;28;19929;-69
2022/06/25 06:29:42;;;;;;;;;;;19.80;99.90;;;;;;5035435;28;19925;-69
2022/06/25 06:32:10;;;;;;;;;;;19.80;99.90;;;;;;5034920;28;19979;-71
2022/06/25 06:34:44;;;;;;;;;;;19.80;99.90;;;;;;5034936;28;19936;-69
2022/06/25 06:37:10;;;;;;;;;;;19.80;99.90;;;;;;5035140;28;19929;-69
2022/06/25 06:39:37;;;;;;;;;;;20.00;99.90;;;;;;5034985;28;19925;-71
2022/06/25 06:42:04;;;;;;;;;;;20.20;99.90;;;;;;5035001;28;20364;-69
2022/06/25 06:44:31;;;;;;;;;;;20.20;99.90;;;;;;5034938;28;20004;-71
2022/06/25 06:46:59;;;;;;;;;;;19.70;99.90;;;;;;5034679;28;19929;-71
2022/06/25 06:49:26;;;;;;;;;;;19.80;99.90;;;;;;5034656;28;19987;-71
2022/06/25 06:51:53;;;;;;;;;;;19.90;99.90;;;;;;5034512;28;19929;-69
2022/06/25 06:54:20;;;;;;;;;;;19.90;99.90;;;;;;5034693;28;20375;-69
2022/06/25 06:59:28;;;;;;;;;;;20.60;99.90;;;;;;5030835;28;20012;-71
2022/06/25 07:01:55;;;;;;;;;;;20.90;99.90;;;;;;5034368;28;19929;-71
2022/06/25 07:04:24;;;;;;;;;;;21.00;99.90;;;;;;5034398;28;19925;-71
2022/06/25 07:06:51;;;;;;;;;;;21.00;99.90;;;;;;5034250;28;19925;-71
2022/06/25 07:09:24;;;;;;;;;;;21.00;99.90;;;;;;5034498;28;19925;-72
2022/06/25 07:12:00;;;;;;;;;;;21.30;99.90;;;;;;5034495;28;19925;-71
2022/06/25 07:14:26;;;;;;;;;;;21.80;99.90;;;;;;5034412;28;19995;-71
2022/06/25 07:16:53;;;;;;;;;;;22.10;99.90;;;;;;5034122;28;19925;-70
2022/06/25 07:19:20;;;;;;;;;;;21.90;99.90;;;;;;5034171;28;19932;-70
2022/06/25 07:21:49;;;;;;;;;;;21.70;99.90;;;;;;5034082;28;20467;-70
2022/06/25 07:24:15;;;;;;;;;;;21.50;99.90;;;;;;5034347;28;19972;-69
2022/06/25 07:26:42;;;;;;;;;;;21.50;99.90;;;;;;5033893;28;19979;-69
2022/06/25 07:29:09;;;;;;;;;;;22.00;99.90;;;;;;5034233;28;19925;-70
2022/06/25 07:31:39;;;;;;;;;;;21.90;99.90;;;;;;5033909;28;19996;-71
2022/06/25 07:34:12;;;;;;;;;;;21.80;99.90;;;;;;5034041;28;19925;-71
2022/06/25 07:36:39;;;;;;;;;;;22.90;99.90;;;;;;5033681;28;19925;-71
2022/06/25 07:39:08;;;;;;;;;;;22.50;99.90;;;;;;5033905;28;19925;-71
2022/06/25 07:41:34;;;;;;;;;;;22.50;99.90;;;;;;5034111;28;19925;-71
2022/06/25 07:44:02;;;;;;;;;;;22.70;99.90;;;;;;5034037;28;19925;-71
2022/06/25 07:46:35;;;;;;;;;;;22.60;99.90;;;;;;5033438;28;19972;-69
2022/06/25 07:49:09;;;;;;;;;;;22.60;99.90;;;;;;5032505;28;19947;-69
2022/06/25 07:54:22;;;;;;;;;;;22.80;99.90;;;;;;5033611;28;19928;-72
2022/06/25 07:56:49;;;;;;;;;;;22.60;99.90;;;;;;5033185;28;20348;-71
2022/06/25 07:59:16;;;;;;;;;;;23.20;99.90;;;;;;5033309;28;20455;-71
2022/06/25 08:01:43;;;;;;;;;;;23.70;99.90;;;;;;5033340;28;19926;-69
2022/06/25 08:04:09;;;;;;;;;;;24.10;99.90;;;;;;5033284;28;19948;-70
2022/06/25 08:06:38;;;;;;;;;;;24.60;99.90;;;;;;5032985;28;20298;-70
2022/06/25 08:09:05;;;;;;;;;;;24.50;99.90;;;;;;5033564;28;19925;-70
2022/06/25 08:11:34;;;;;;;;;;;24.40;99.90;;;;;;5033248;28;19925;-69
2022/06/25 08:14:00;;;;;;;;;;;23.50;99.90;;;;;;5033247;28;19925;-70
2022/06/25 08:16:27;;;;;;;;;;;24.00;99.90;;;;;;5032726;28;19925;-70
2022/06/25 08:18:54;;;;;;;;;;;24.00;99.90;;;;;;5032829;28;19925;-70
2022/06/25 08:21:21;;;;;;;;;;;23.70;99.90;;;;;;5032970;28;20343;-70
2022/06/25 08:23:48;;;;;;;;;;;23.10;99.90;;;;;;5032733;28;19933;-69
2022/06/25 08:26:16;;;;;;;;;;;22.90;99.90;;;;;;5032833;28;19937;-69
2022/06/25 08:28:44;;;;;;;;;;;23.60;99.90;;;;;;5032877;28;19925;-70
2022/06/25 08:31:11;;;;;;;;;;;23.80;99.90;;;;;;5033202;28;20370;-70
2022/06/25 08:33:38;;;;;;;;;;;23.70;99.90;;;;;;5032539;28;20312;-70
2022/06/25 08:36:05;;;;;;;;;;;23.90;99.90;;;;;;5032031;28;19987;-69
2022/06/25 08:38:32;;;;;;;;;;;24.50;99.90;;;;;;5032556;28;20344;-70
2022/06/25 08:41:00;;;;;;;;;;;25.30;99.90;;;;;;5032512;28;19925;-70
2022/06/25 08:43:26;;;;;;;;;;;26.20;99.90;;;;;;5032652;28;19979;-69
2022/06/25 08:45:55;;;;;;;;;;;26.30;99.90;;;;;;5032264;28;19932;-70
2022/06/25 08:48:23;;;;;;;;;;;26.70;99.80;;;;;;5032887;28;19932;-70
2022/06/25 08:50:50;;;;;;;;;;;26.50;99.40;;;;;;5032457;28;19925;-70
2022/06/25 08:53:17;;;;;;;;;;;26.30;99.90;;;;;;5032370;28;19924;-70
2022/06/25 08:55:45;;;;;;;;;;;26.80;99.10;;;;;;5032150;28;20278;-70
2022/06/25 08:58:12;;;;;;;;;;;28.20;97.30;;;;;;5032353;28;19925;-70
2022/06/25 09:00:41;;;;;;;;;;;28.70;97.20;;;;;;5032067;28;19925;-70
2022/06/25 09:03:09;;;;;;;;;;;28.70;96.80;;;;;;5032139;28;19925;-70
2022/06/25 09:05:37;;;;;;;;;;;28.70;96.70;;;;;;5031831;28;20012;-70
2022/06/25 09:08:05;;;;;;;;;;;28.80;96.40;;;;;;5032126;28;19933;-70
2022/06/25 09:10:32;;;;;;;;;;;29.20;95.90;;;;;;5032316;28;19926;-70
2022/06/25 09:12:59;;;;;;;;;;;28.60;96.20;;;;;;5032005;28;19929;-70
2022/06/25 09:15:27;;;;;;;;;;;27.10;97.70;;;;;;5031860;28;20341;-71
2022/06/25 09:17:54;;;;;;;;;;;26.20;98.50;;;;;;5032201;28;20397;-72
2022/06/25 09:20:23;;;;;;;;;;;25.10;99.80;;;;;;5032390;28;20444;-71
2022/06/25 09:22:54;;;;;;;;;;;24.90;99.90;;;;;;5032080;28;19925;-72
2022/06/25 09:25:24;;;;;;;;;;;25.30;99.90;;;;;;5031807;28;19925;-71
2022/06/25 09:27:51;;;;;;;;;;;26.50;99.10;;;;;;5032468;28;19928;-71
2022/06/25 09:30:20;;;;;;;;;;;28.00;97.40;;;;;;5031855;28;19925;-71
2022/06/25 09:32:48;;;;;;;;;;;28.80;95.70;;;;;;5032219;28;19932;-71
2022/06/25 09:35:15;;;;;;;;;;;29.50;95.20;;;;;;5031811;28;19978;-71
2022/06/25 09:37:43;;;;;;;;;;;30.60;94.00;;;;;;5031762;28;20450;-72
2022/06/25 09:40:11;;;;;;;;;;;29.10;94.30;;;;;;5031693;28;20347;-72
2022/06/25 09:42:38;;;;;;;;;;;28.60;95.20;;;;;;5031753;28;19929;-71
2022/06/25 09:45:07;;;;;;;;;;;31.10;93.60;;;;;;5031421;28;19925;-72
2022/06/25 09:47:37;;;;;;;;;;;31.70;91.70;;;;;;5033073;28;19925;-72
2022/06/25 09:50:06;;;;;;;;;;;30.60;91.90;;;;;;5036031;28;19929;-71
2022/06/25 09:52:33;;;;;;;;;;;29.40;93.50;;;;;;5035706;28;19975;-72
2022/06/25 09:55:01;;;;;;;;;;;27.60;95.00;;;;;;5035603;28;19928;-72
2022/06/25 09:57:28;;;;;;;;;;;26.70;96.10;;;;;;5035699;28;19926;-72
2022/06/25 09:59:56;;;;;;;;;;;26.10;97.10;;;;;;5036007;28;19925;-71
2022/06/25 10:02:24;;;;;;;;;;;26.60;96.10;;;;;;5035672;28;20407;-71
2022/06/25 10:04:51;;;;;;;;;;;28.20;94.50;;;;;;5035290;28;20274;-71
2022/06/25 10:07:59;;;;;;;;;;;28.70;93.30;;;;;;5035443;28;19925;-72
2022/06/25 10:10:09;;;;;;;;;;;28.80;93.60;;;;;;5035444;28;19932;-70
2022/06/25 10:12:36;;;;;;;;;;;31.10;91.80;;;;;;5035299;28;19929;-70
2022/06/25 10:15:03;;;;;;;;;;;31.10;91.10;;;;;;5035074;28;19936;-70
2022/06/25 10:17:30;;;;;;;;;;;30.20;92.10;;;;;;5035274;28;20290;-70
2022/06/25 10:19:57;;;;;;;;;;;30.50;92.10;;;;;;5035478;28;19925;-70
2022/06/25 10:22:24;;;;;;;;;;;31.70;90.40;;;;;;5035267;28;19933;-70
2022/06/25 10:24:51;;;;;;;;;;;31.80;88.50;;;;;;5035211;28;19925;-70
2022/06/25 10:27:21;;;;;;;;;;;31.70;90.10;;;;;;5035151;28;19929;-70
2022/06/25 10:29:52;;;;;;;;;;;32.00;89.30;;;;;;5035329;28;20047;-70
2022/06/25 10:32:19;;;;;;;;;;;29.80;91.20;;;;;;5035747;28;19980;-70
2022/06/25 10:34:53;;;;;;;;;;;29.70;90.60;;;;;;5034930;28;19929;-72
2022/06/25 10:37:20;;;;;;;;;;;30.90;90.10;;;;;;5035161;28;19971;-70
2022/06/25 10:39:49;;;;;;;;;;;30.60;89.90;;;;;;5034825;28;19925;-70
2022/06/25 10:45:28;;;;;;;;;;;30.00;90.80;;;;;;5034902;28;19979;-70
2022/06/25 10:47:56;;;;;;;;;;;31.90;89.40;;;;;;5034543;28;19925;-70
2022/06/25 10:50:30;;;;;;;;;;;32.70;87.90;;;;;;5034925;28;20243;-71
2022/06/25 10:53:27;;;;;;;;;;;30.50;89.90;;;;;;5034504;28;19925;-71
2022/06/25 10:56:15;;;;;;;;;;;32.00;87.10;;;;;;4973398;28;20420;-71
2022/06/25 10:58:44;;;;;;;;;;;30.30;89.70;;;;;;5028631;28;19925;-72
2022/06/25 11:01:21;;;;;;;;;;;30.70;88.00;;;;;;5034654;28;19933;-70
2022/06/25 11:03:51;;;;;;;;;;;30.50;88.10;;;;;;5034366;28;19925;-71
2022/06/25 11:06:19;;;;;;;;;;;30.90;87.70;;;;;;5034284;28;19925;-71
2022/06/25 11:08:46;;;;;;;;;;;31.70;85.40;;;;;;5034500;28;19979;-71
2022/06/25 11:11:13;;;;;;;;;;;31.90;84.80;;;;;;5034607;28;19925;-72
2022/06/25 11:13:40;;;;;;;;;;;33.50;81.70;;;;;;5034283;28;20289;-71
2022/06/25 11:16:14;;;;;;;;;;;34.30;82.30;;;;;;5033954;28;19925;-71
2022/06/25 11:18:46;;;;;;;;;;;34.20;80.80;;;;;;5034199;28;19929;-72
2022/06/25 11:21:24;;;;;;;;;;;32.60;83.70;;;;;;5034252;28;19925;-72
2022/06/25 11:23:51;;;;;;;;;;;32.20;85.20;;;;;;5034096;28;20464;-72
2022/06/25 11:29:02;;;;;;;;;;;32.40;83.90;;;;;;5034284;28;19927;-71
2022/06/25 11:31:33;;;;;;;;;;;33.20;84.30;;;;;;5034111;28;19929;-72
2022/06/25 11:34:01;;;;;;;;;;;31.20;84.40;;;;;;5033981;28;19932;-71
2022/06/25 11:36:28;;;;;;;;;;;31.30;85.90;;;;;;5033762;28;19929;-72
2022/06/25 11:38:55;;;;;;;;;;;29.70;85.70;;;;;;5033629;28;19925;-71
2022/06/25 11:41:22;;;;;;;;;;;29.70;85.60;;;;;;5033954;28;20447;-71
2022/06/25 11:43:49;;;;;;;;;;;30.30;83.00;;;;;;5033575;28;20412;-71
2022/06/25 11:46:18;;;;;;;;;;;29.20;86.50;;;;;;5033487;28;19955;-71
2022/06/25 11:48:47;;;;;;;;;;;30.10;86.90;;;;;;5033873;28;19925;-71
2022/06/25 11:51:14;;;;;;;;;;;29.70;88.30;;;;;;5033479;28;19925;-71
2022/06/25 11:53:42;;;;;;;;;;;29.30;89.70;;;;;;5033970;28;19932;-72
2022/06/25 11:56:09;;;;;;;;;;;30.30;87.50;;;;;;5033214;28;19925;-71
2022/06/25 11:58:36;;;;;;;;;;;31.50;84.00;;;;;;5033300;28;19932;-71
2022/06/25 12:01:04;;;;;;;;;;;31.40;84.40;;;;;;5033514;28;19927;-69
2022/06/25 12:03:32;;;;;;;;;;;29.90;87.80;;;;;;5033304;28;19929;-72
2022/06/25 12:06:01;;;;;;;;;;;28.80;88.80;;;;;;5033213;28;19925;-71
2022/06/25 12:08:28;;;;;;;;;;;29.40;88.40;;;;;;5033466;28;19925;-71
2022/06/25 12:10:55;;;;;;;;;;;29.60;88.60;;;;;;5032666;28;19948;-71
2022/06/25 12:13:23;;;;;;;;;;;31.50;84.90;;;;;;5033071;28;20394;-72
2022/06/25 12:15:57;;;;;;;;;;;30.80;85.10;;;;;;5033076;28;19983;-70
2022/06/25 12:18:32;;;;;;;;;;;32.00;83.90;;;;;;5033427;28;19925;-69
2022/06/25 12:21:05;;;;;;;;;;;33.50;80.80;;;;;;5033006;28;20447;-70
2022/06/25 12:23:49;;;;;;;;;;;33.10;80.40;;;;;;5034316;28;19932;-71
2022/06/25 12:26:23;;;;;;;;;;;31.20;82.40;;;;;;5031507;28;19979;-70
2022/06/25 12:28:50;;;;;;;;;;;31.20;84.50;;;;;;5032821;28;20309;-70
2022/06/25 12:31:17;;;;;;;;;;;31.00;84.70;;;;;;5032902;28;19933;-70
2022/06/25 12:33:48;;;;;;;;;;;30.70;84.90;;;;;;5032770;28;19932;-70
2022/06/25 12:36:17;;;;;;;;;;;30.60;85.50;;;;;;5032524;28;19929;-70
2022/06/25 12:38:44;;;;;;;;;;;29.00;87.10;;;;;;5032663;28;20028;-70
2022/06/25 12:41:11;;;;;;;;;;;29.40;88.80;;;;;;5032829;28;19937;-72
2022/06/25 12:43:45;;;;;;;;;;;30.60;86.10;;;;;;5032860;28;19925;-70
2022/06/25 12:46:12;;;;;;;;;;;31.70;81.90;;;;;;5032538;28;20024;-70
2022/06/25 12:48:39;;;;;;;;;;;31.10;83.70;;;;;;5032653;28;19926;-71
2022/06/25 12:51:10;;;;;;;;;;;30.40;82.80;;;;;;5032900;28;19979;-72
2022/06/25 12:53:38;;;;;;;;;;;31.70;82.00;;;;;;5032648;28;19933;-72
2022/06/25 12:56:06;;;;;;;;;;;34.10;79.40;;;;;;5032648;28;20340;-71
2022/06/25 12:58:36;;;;;;;;;;;34.20;77.80;;;;;;5032729;28;20292;-71
2022/06/25 13:01:17;;;;;;;;;;;34.70;77.00;;;;;;5032525;28;19931;-70
2022/06/25 13:03:44;;;;;;;;;;;33.90;76.80;;;;;;5032550;28;19929;-70
2022/06/25 13:06:11;;;;;;;;;;;34.20;77.30;;;;;;5032424;28;19969;-70
2022/06/25 13:08:40;;;;;;;;;;;32.70;77.70;;;;;;5032375;28;19932;-70
2022/06/25 13:11:07;;;;;;;;;;;34.20;75.60;;;;;;5033085;28;19931;-69
2022/06/25 13:13:34;;;;;;;;;;;33.50;78.80;;;;;;5032180;28;19925;-69
2022/06/25 13:16:01;;;;;;;;;;;33.30;76.30;;;;;;5032433;28;20381;-71
2022/06/25 13:18:28;;;;;;;;;;;33.70;77.00;;;;;;5032095;28;20015;-71
2022/06/25 13:20:54;;;;;;;;;;;33.90;76.00;;;;;;5032307;28;19925;-71
2022/06/25 13:23:21;;;;;;;;;;;34.30;76.10;;;;;;5032419;28;20380;-71
2022/06/25 13:25:49;;;;;;;;;;;35.20;76.00;;;;;;5032104;28;20336;-69
2022/06/25 13:28:16;;;;;;;;;;;34.10;75.90;;;;;;5032284;28;19929;-70
2022/06/25 13:30:43;;;;;;;;;;;32.50;79.20;;;;;;5032103;28;19925;-70
2022/06/25 13:33:10;;;;;;;;;;;32.00;80.10;;;;;;5032325;28;20019;-69
2022/06/25 13:35:37;;;;;;;;;;;34.40;77.20;;;;;;5031727;28;19925;-70
2022/06/25 13:38:04;;;;;;;;;;;33.20;76.60;;;;;;5032155;28;19926;-69
2022/06/25 13:40:31;;;;;;;;;;;32.70;78.60;;;;;;5031755;28;19979;-69
2022/06/25 13:42:59;;;;;;;;;;;30.90;81.70;;;;;;5031878;28;19979;-69
2022/06/25 13:45:26;;;;;;;;;;;30.60;82.00;;;;;;5032361;28;20328;-69
2022/06/25 13:47:52;;;;;;;;;;;30.80;81.90;;;;;;5031699;28;19932;-69
2022/06/25 13:50:19;;;;;;;;;;;33.00;77.90;;;;;;5031891;28;19925;-70
2022/06/25 13:52:46;;;;;;;;;;;32.90;77.30;;;;;;5031791;28;19925;-69
2022/06/25 13:55:13;;;;;;;;;;;32.30;79.00;;;;;;5031508;28;19929;-69
2022/06/25 13:57:42;;;;;;;;;;;32.40;79.00;;;;;;5031908;28;19986;-69
2022/06/25 14:00:11;;;;;;;;;;;33.40;77.50;;;;;;5031900;28;19932;-71
2022/06/25 14:02:39;;;;;;;;;;;32.40;76.70;;;;;;5031960;28;19925;-71
2022/06/25 14:05:06;;;;;;;;;;;31.70;79.90;;;;;;5031883;28;19929;-70
2022/06/25 14:07:33;;;;;;;;;;;32.60;78.30;;;;;;5031995;28;20380;-71
2022/06/25 14:09:59;;;;;;;;;;;31.30;79.10;;;;;;5032039;28;19979;-71
2022/06/25 14:12:26;;;;;;;;;;;31.50;79.70;;;;;;5031815;28;19925;-72
2022/06/25 14:14:54;;;;;;;;;;;30.50;80.70;;;;;;5031337;28;20301;-70
2022/06/25 14:17:23;;;;;;;;;;;29.90;82.90;;;;;;5031635;28;20012;-71
2022/06/25 14:19:50;;;;;;;;;;;29.90;82.70;;;;;;5031777;28;19925;-72
2022/06/25 14:22:16;;;;;;;;;;;30.40;83.00;;;;;;5031974;28;20011;-70
2022/06/25 14:27:28;;;;;;;;;;;31.40;80.80;;;;;;5031590;28;19928;-70
2022/06/25 14:29:54;;;;;;;;;;;31.30;80.90;;;;;;5032060;28;19968;-71
2022/06/25 14:32:23;;;;;;;;;;;32.50;78.20;;;;;;5031729;28;20020;-70
2022/06/25 14:34:50;;;;;;;;;;;31.40;77.90;;;;;;5034644;28;19925;-72
2022/06/25 14:42:45;;;;;;;;;;;31.00;79.80;;;;;;5035052;28;19928;-71
2022/06/25 14:45:12;;;;;;;;;;;32.00;78.00;;;;;;5034777;28;19964;-72